Terminal Aerodrome Forecast
Issued by NWS Tuscon, AZ

Home | Current Version | Previous Version | Text Only | Print | Product List | Glossary On
Versions: 1 2 3 4 5 6 7 8 9 10 11 12
000
FTUS45 KTWC 251720
TAFTUS
TAF
KTUS 251720Z 2518/2618 27011G17KT P6SM BKN250
     FM252000 27022G31KT P6SM FEW100 BKN200
     FM260300 30014G22KT P6SM OVC200
     FM260700 24010KT P6SM BKN250
     FM261200 19005KT P6SM BKN250=

USA.gov is the U.S. government's official web portal to all federal, state and local government web resources and services.